Time;durP1;ratioP1;P1;durP2;ratioP2;P2;SDS_P1;SDS_P2;PMS_P1;PMS_P2;Temp;Humidity;BMP_temperature;BMP_pressure;BME280_temperature;BME280_humidity;BME280_pressure;Samples;Min_cycle;Max_cycle;Signal;HPM_P1;HPM_P2
2022/04/25 00:02:09;;;;;;;33.22;31.10;;;;;;;14.66;100.00;100196.19;5106207;28;20050;-91
2022/04/25 00:04:39;;;;;;;31.83;30.10;;;;;;;14.57;100.00;100192.31;5102426;28;20109;-91
2022/04/25 00:07:06;;;;;;;30.70;28.40;;;;;;;14.41;100.00;100194.72;5103559;28;20101;-89
2022/04/25 00:09:37;;;;;;;31.40;29.17;;;;;;;14.47;100.00;100190.25;5107308;28;20497;-89
2022/04/25 00:12:10;;;;;;;34.63;32.30;;;;;;;14.58;100.00;100186.72;5106648;28;20044;-91
2022/04/25 00:14:37;;;;;;;;;;;;;;;14.47;100.00;100184.91;5103958;28;20043;-91
2022/04/25 00:17:06;;;;;;;32.65;30.63;;;;;;;14.39;100.00;100177.31;5106341;28;19973;-89
2022/04/25 00:19:33;;;;;;;32.97;30.80;;;;;;;14.39;100.00;100175.44;5104625;28;20082;-90
2022/04/25 00:22:00;;;;;;;34.95;32.45;;;;;;;14.66;100.00;100174.81;5100680;28;20052;-90
2022/04/25 00:24:27;;;;;;;36.00;33.55;;;;;;;14.60;100.00;100170.44;5090762;28;20066;-90
2022/04/25 00:26:54;;;;;;;31.98;29.88;;;;;;;14.66;100.00;100170.25;5086675;28;20044;-89
2022/04/25 00:29:25;;;;;;;32.85;30.92;;;;;;;14.74;100.00;100171.72;5085364;28;20135;-91
2022/04/25 00:31:52;;;;;;;32.63;30.60;;;;;;;14.70;100.00;100183.13;5094239;28;20044;-91
2022/04/25 00:34:19;;;;;;;32.10;29.55;;;;;;;14.74;100.00;100181.59;5093788;28;20050;-89
2022/04/25 00:36:46;;;;;;;32.63;30.38;;;;;;;14.74;100.00;100179.72;5094492;28;20055;-91
2022/04/25 00:39:13;;;;;;;33.72;30.73;;;;;;;14.63;100.00;100181.44;5089865;28;20048;-91
2022/04/25 00:41:42;;;;;;;31.35;29.52;;;;;;;14.42;100.00;100174.94;5089601;28;20083;-91
2022/04/25 00:44:09;;;;;;;29.67;27.77;;;;;;;14.45;100.00;100176.34;5092899;28;20052;-91
2022/04/25 00:46:38;;;;;;;32.90;30.80;;;;;;;14.24;100.00;100167.19;5092853;28;20052;-92
2022/04/25 00:49:05;;;;;;;33.85;31.45;;;;;;;14.01;100.00;100170.84;5084762;28;20067;-91
2022/04/25 00:51:32;;;;;;;35.95;33.28;;;;;;;13.99;100.00;100170.28;5085181;28;20501;-91
2022/04/25 00:54:01;;;;;;;31.95;29.98;;;;;;;14.41;100.00;100167.19;5089725;28;20143;-91
2022/04/25 00:56:41;;;;;;;35.53;32.78;;;;;;;14.29;100.00;100159.28;5091395;28;20047;-90
2022/04/25 00:59:09;;;;;;;39.90;37.15;;;;;;;14.41;100.00;100160.00;5084803;28;20037;-91
2022/04/25 01:01:52;;;;;;;34.80;32.38;;;;;;;14.47;100.00;100158.19;5091654;28;20056;-91
2022/04/25 01:04:19;;;;;;;39.33;36.53;;;;;;;14.39;100.00;100151.41;5093138;28;20068;-90
2022/04/25 01:06:46;;;;;;;33.78;31.35;;;;;;;14.44;100.00;100159.50;5093089;28;20055;-90
2022/04/25 01:09:13;;;;;;;32.35;29.98;;;;;;;14.56;100.00;100155.97;5091921;28;20043;-90
2022/04/25 01:11:43;;;;;;;34.85;32.15;;;;;;;14.56;100.00;100158.63;5090752;28;20048;-90
2022/04/25 01:14:15;;;;;;;31.55;29.42;;;;;;;14.55;100.00;100157.78;5091932;28;20052;-92
2022/04/25 01:16:50;;;;;;;30.50;28.38;;;;;;;14.65;100.00;100160.63;5089446;28;20516;-91
2022/04/25 01:19:23;;;;;;;32.50;29.83;;;;;;;14.64;100.00;100163.53;5091622;28;20048;-90
2022/04/25 01:22:05;;;;;;;54.15;48.15;;;;;;;14.83;100.00;100156.06;5092509;28;20056;-90
2022/04/25 01:27:25;;;;;;;35.80;32.58;;;;;;;14.77;100.00;100149.84;5092820;28;20173;-90
2022/04/25 01:29:57;;;;;;;33.45;30.95;;;;;;;14.65;100.00;100154.47;5088564;28;20127;-91
2022/04/25 01:32:25;;;;;;;35.97;33.08;;;;;;;14.80;100.00;100156.56;5091666;28;20051;-91
2022/04/25 01:34:54;;;;;;;34.00;31.70;;;;;;;15.08;100.00;100155.56;5091798;28;20051;-91
2022/04/25 01:37:23;;;;;;;35.55;32.50;;;;;;;14.95;100.00;100156.75;5091838;28;20052;-91
2022/04/25 01:39:58;;;;;;;35.67;32.97;;;;;;;14.91;100.00;100152.13;5088191;28;20073;-89
2022/04/25 01:42:26;;;;;;;36.03;33.30;;;;;;;14.47;100.00;100157.41;5093435;28;20048;-90
2022/04/25 01:44:53;;;;;;;38.13;34.97;;;;;;;13.68;100.00;100151.06;5091762;28;20529;-91
2022/04/25 01:47:22;;;;;;;36.10;33.30;;;;;;;14.37;100.00;100147.34;5091532;28;20516;-91
2022/04/25 01:49:54;;;;;;;36.28;34.00;;;;;;;13.73;100.00;100140.44;5077137;28;20079;-89
2022/04/25 01:52:25;;;;;;;38.95;35.92;;;;;;;13.30;100.00;100149.00;5092148;28;20544;-90
2022/04/25 01:54:55;;;;;;;38.28;35.90;;;;;;;13.79;100.00;100141.34;5087068;28;20063;-90
2022/04/25 01:57:25;;;;;;;45.85;43.00;;;;;;;13.55;100.00;100137.19;5090772;28;20044;-92
2022/04/25 01:59:53;;;;;;;43.47;40.85;;;;;;;13.74;100.00;100142.09;5088423;28;20135;-89
2022/04/25 02:02:25;;;;;;;43.88;41.05;;;;;;;13.70;100.00;100134.78;5198116;22;20052;-91
2022/04/25 02:04:54;;;;;;;44.72;42.00;;;;;;;13.47;100.00;100138.41;5087266;28;20436;-91
2022/04/25 02:07:25;;;;;;;43.42;40.60;;;;;;;13.51;100.00;100131.53;5090246;28;20068;-91
2022/04/25 02:09:58;;;;;;;45.33;42.10;;;;;;;13.44;100.00;100129.00;5084442;28;20131;-91
2022/04/25 02:12:27;;;;;;;41.00;37.92;;;;;;;13.31;100.00;100123.16;5088091;28;20064;-91
2022/04/25 02:15:02;;;;;;;38.95;36.22;;;;;;;13.33;100.00;100137.06;5092123;28;20050;-91
2022/04/25 02:17:29;;;;;;;40.35;37.03;;;;;;;13.21;100.00;100135.22;5091900;28;20048;-92
2022/04/25 02:19:59;;;;;;;43.95;40.10;;;;;;;13.35;100.00;100134.97;5092552;28;20491;-91
2022/04/25 02:22:27;;;;;;;39.40;36.13;;;;;;;12.82;100.00;100134.16;5091991;28;20056;-91
2022/04/25 02:25:07;;;;;;;41.85;38.90;;;;;;;13.16;100.00;100134.28;5092172;28;20047;-91
2022/04/25 02:27:38;;;;;;;41.22;37.83;;;;;;;12.95;100.00;100133.91;5088505;28;20055;-92
2022/04/25 02:30:06;;;;;;;42.40;39.53;;;;;;;13.02;100.00;100139.09;5091574;28;20044;-91
2022/04/25 02:32:35;;;;;;;42.28;39.08;;;;;;;13.27;100.00;100131.63;5091485;28;20298;-91
2022/04/25 02:35:02;;;;;;;50.80;46.65;;;;;;;13.15;100.00;100124.69;5090558;28;20048;-91
2022/04/25 02:37:30;;;;;;;50.88;46.40;;;;;;;13.22;100.00;100120.00;5091330;28;20192;-91
2022/04/25 02:40:00;;;;;;;47.42;42.88;;;;;;;13.50;100.00;100121.91;5091808;28;20406;-91
2022/04/25 02:42:28;;;;;;;54.58;50.00;;;;;;;13.18;100.00;100132.22;5079749;28;20478;-92
2022/04/25 02:44:57;;;;;;;46.95;43.83;;;;;;;13.03;100.00;100133.53;5090538;28;20047;-91
2022/04/25 02:47:26;;;;;;;45.67;42.45;;;;;;;13.08;100.00;100130.16;5091834;28;20048;-92
2022/04/25 02:49:53;;;;;;;46.10;42.15;;;;;;;13.01;100.00;100126.81;5085477;28;20475;-91
2022/04/25 02:52:21;;;;;;;36.08;33.47;;;;;;;13.13;100.00;100140.94;5092225;28;20036;-91
2022/04/25 02:54:50;;;;;;;40.47;37.78;;;;;;;13.09;100.00;100139.75;5091723;28;20082;-90
2022/04/25 02:57:21;;;;;;;40.08;37.60;;;;;;;12.93;100.00;100146.66;5085751;28;20065;-92
2022/04/25 02:59:53;;;;;;;44.42;41.00;;;;;;;13.09;100.00;100137.09;5087844;28;20055;-92
2022/04/25 03:02:21;;;;;;;44.17;41.25;;;;;;;13.12;100.00;100143.81;5091073;28;20060;-92
2022/04/25 03:04:48;;;;;;;40.55;37.50;;;;;;;13.25;100.00;100147.06;5091120;28;20051;-92
2022/04/25 03:07:26;;;;;;;42.75;39.70;;;;;;;12.74;100.00;100138.00;5086714;28;20048;-91
2022/04/25 03:09:56;;;;;;;43.22;39.95;;;;;;;12.74;100.00;100145.19;5087299;28;20060;-91
2022/04/25 03:12:25;;;;;;;42.72;39.65;;;;;;;12.98;100.00;100144.09;5089309;28;20564;-91
2022/04/25 03:14:58;;;;;;;40.33;37.60;;;;;;;12.89;100.00;100145.50;5091493;28;20044;-90
2022/04/25 03:17:26;;;;;;;35.33;32.22;;;;;;;12.78;100.00;100146.34;5091692;28;20532;-91
2022/04/25 03:19:53;;;;;;;32.17;29.50;;;;;;;12.80;100.00;100139.72;5091610;28;20075;-91
2022/04/25 03:22:21;;;;;;;32.67;30.25;;;;;;;12.88;100.00;100151.88;5090855;28;20048;-91
2022/04/25 03:24:49;;;;;;;31.05;28.73;;;;;;;13.57;100.00;100143.09;5091268;28;20059;-91
2022/04/25 03:27:19;;;;;;;31.08;28.73;;;;;;;13.91;100.00;100134.09;5091659;28;20060;-91
2022/04/25 03:29:47;;;;;;;32.08;29.50;;;;;;;13.70;100.00;100140.13;5091303;28;20059;-91
2022/04/25 03:32:15;;;;;;;31.42;28.95;;;;;;;13.54;100.00;100146.25;5090355;28;20044;-92
2022/04/25 03:34:43;;;;;;;31.13;28.80;;;;;;;13.62;100.00;100151.22;5090571;28;20052;-92
2022/04/25 03:39:51;;;;;;;29.00;26.35;;;;;;;14.04;100.00;100148.16;5089622;28;20075;-91
2022/04/25 03:42:19;;;;;;;29.45;26.52;;;;;;;13.97;100.00;100151.00;5090647;28;20114;-91
2022/04/25 03:45:11;;;;;;;29.20;26.67;;;;;;;13.85;100.00;100148.41;5091059;28;20044;-92
2022/04/25 03:47:39;;;;;;;29.75;26.95;;;;;;;13.95;100.00;100142.44;5088038;28;20058;-91
2022/04/25 03:50:08;;;;;;;28.60;26.15;;;;;;;13.73;100.00;100145.78;5086067;28;20040;-92
2022/04/25 03:52:35;;;;;;;27.77;25.63;;;;;;;13.87;100.00;100145.50;5088084;28;20044;-91
2022/04/25 03:57:52;;;;;;;28.65;26.35;;;;;;;13.79;100.00;100152.03;5083996;28;20055;-91
2022/04/25 04:00:23;;;;;;;29.95;27.23;;;;;;;13.90;100.00;100153.84;5091895;28;20059;-91
2022/04/25 04:02:52;;;;;;;28.42;25.77;;;;;;;13.46;100.00;100158.94;5093679;28;20055;-92
2022/04/25 04:05:20;;;;;;;28.77;26.23;;;;;;;13.93;100.00;100149.88;5091629;28;20052;-91
2022/04/25 04:07:50;;;;;;;27.73;25.48;;;;;;;13.99;100.00;100156.91;5090735;28;20044;-91
2022/04/25 04:10:18;;;;;;;28.85;26.42;;;;;;;13.87;100.00;100150.84;5094582;28;20101;-91
2022/04/25 04:12:49;;;;;;;29.15;26.42;;;;;;;14.07;100.00;100153.84;5094063;28;20125;-92
2022/04/25 04:15:18;;;;;;;28.38;26.35;;;;;;;14.07;100.00;100153.03;5090204;28;20105;-92
2022/04/25 04:17:51;;;;;;;31.48;28.55;;;;;;;14.14;100.00;100151.81;5094878;28;20552;-91
2022/04/25 04:20:19;;;;;;;30.75;28.05;;;;;;;13.81;100.00;100159.81;5092076;28;20047;-92
2022/04/25 04:22:47;;;;;;;28.45;26.20;;;;;;;13.92;100.00;100150.94;5093090;28;20426;-91
2022/04/25 04:25:22;;;;;;;30.17;27.58;;;;;;;14.07;100.00;100159.19;5089772;28;20075;-92
2022/04/25 04:27:50;;;;;;;28.50;26.23;;;;;;;14.15;100.00;100156.09;5092124;28;20056;-92
2022/04/25 04:30:18;;;;;;;32.78;29.35;;;;;;;13.94;100.00;100154.16;5093663;28;20045;-92
2022/04/25 04:33:02;;;;;;;29.83;27.55;;;;;;;14.13;100.00;100163.56;5091288;28;20139;-92
2022/04/25 04:38:17;;;;;;;29.38;26.88;;;;;;;14.53;100.00;100161.78;5087559;28;20526;-91
2022/04/25 04:40:45;;;;;;;29.38;27.35;;;;;;;14.59;100.00;100158.94;5090254;28;20040;-89
2022/04/25 04:43:15;;;;;;;29.98;27.33;;;;;;;14.72;100.00;100162.31;5093119;28;20044;-91
2022/04/25 04:45:45;;;;;;;30.85;27.90;;;;;;;14.89;100.00;100161.22;5094432;28;20048;-91
2022/04/25 04:48:15;;;;;;;33.50;30.88;;;;;;;14.89;100.00;100155.88;5043989;28;20549;-90
2022/04/25 04:50:43;;;;;;;30.35;27.70;;;;;;;15.09;100.00;100151.81;5053862;28;20132;-91
2022/04/25 04:53:14;;;;;;;30.20;27.90;;;;;;;15.23;100.00;100153.06;5053280;28;20052;-91
2022/04/25 04:55:43;;;;;;;31.58;29.00;;;;;;;15.29;100.00;100144.03;5053303;28;20041;-92
2022/04/25 04:58:12;;;;;;;30.60;28.00;;;;;;;15.25;100.00;100139.44;5047231;28;20044;-91
2022/04/25 05:00:47;;;;;;;29.85;27.25;;;;;;;15.22;100.00;100143.44;5055216;28;20049;-92
2022/04/25 05:03:25;;;;;;;28.83;26.65;;;;;;;15.53;100.00;100133.06;5006062;28;20049;-92
2022/04/25 05:05:53;;;;;;;29.55;25.73;;;;;;;15.68;100.00;100133.22;5048120;28;20060;-92
2022/04/25 05:08:22;;;;;;;28.17;25.80;;;;;;;15.86;100.00;100136.59;5053061;28;20053;-93
2022/04/25 05:10:49;;;;;;;29.85;26.77;;;;;;;16.06;100.00;100135.94;5050476;28;20140;-92
2022/04/25 05:13:17;;;;;;;30.05;26.90;;;;;;;16.09;100.00;100146.16;5052830;28;20395;-92
2022/04/25 05:15:45;;;;;;;29.17;26.65;;;;;;;16.21;100.00;100149.47;5049849;28;20053;-92
2022/04/25 05:18:13;;;;;;;29.50;26.45;;;;;;;16.34;100.00;100157.06;5053162;28;20049;-92
2022/04/25 05:20:43;;;;;;;28.98;26.20;;;;;;;16.40;100.00;100157.88;5049479;28;20132;-92
2022/04/25 05:23:12;;;;;;;28.95;26.58;;;;;;;16.47;100.00;100167.34;5053119;28;20029;-93
2022/04/25 05:25:40;;;;;;;29.52;26.90;;;;;;;16.62;100.00;100166.63;5052291;28;20071;-92
2022/04/25 05:28:09;;;;;;;29.20;26.20;;;;;;;16.83;100.00;100169.47;5046418;28;20053;-92
2022/04/25 05:30:39;;;;;;;29.02;26.60;;;;;;;16.99;100.00;100171.13;5053187;28;20052;-93
2022/04/25 05:33:10;;;;;;;28.23;25.67;;;;;;;16.92;100.00;100165.22;5048383;28;20045;-91
2022/04/25 05:36:06;;;;;;;29.42;26.83;;;;;;;17.00;100.00;100167.38;5050045;28;20048;-92
2022/04/25 05:38:34;;;;;;;29.58;26.55;;;;;;;17.04;100.00;100179.22;5049100;28;20045;-93
2022/04/25 05:41:07;;;;;;;28.60;26.35;;;;;;;17.23;100.00;100176.88;5051474;28;20087;-90
2022/04/25 05:43:43;;;;;;;29.60;26.98;;;;;;;17.34;100.00;100183.91;5049899;28;20514;-93
2022/04/25 05:46:37;;;;;;;28.83;25.92;;;;;;;17.36;100.00;100189.78;5048579;28;20533;-94
2022/04/25 05:52:03;;;;;;;29.48;26.58;;;;;;;17.68;100.00;100182.66;5054102;28;20055;-93
2022/04/25 05:54:33;;;;;;;29.35;26.48;;;;;;;17.86;100.00;100184.84;5052893;28;20056;-93
2022/04/25 05:57:00;;;;;;;29.27;26.38;;;;;;;17.61;100.00;100182.91;5055169;28;20053;-87
2022/04/25 05:59:30;;;;;;;28.88;26.45;;;;;;;17.80;100.00;100183.22;5053819;28;20144;-93
2022/04/25 06:02:20;;;;;;;30.58;27.38;;;;;;;17.94;100.00;100178.13;5049805;28;20498;-93
2022/04/25 06:05:17;;;;;;;31.58;28.20;;;;;;;18.13;100.00;100186.50;5049316;28;20612;-93
2022/04/25 06:08:21;;;;;;;31.33;28.30;;;;;;;18.34;100.00;100192.66;5035150;28;20059;-94
2022/04/25 06:11:06;;;;;;;35.47;31.55;;;;;;;18.67;100.00;100178.63;5035794;28;20048;-93
2022/04/25 06:16:51;;;;;;;32.75;29.38;;;;;;;18.95;100.00;100188.00;5046294;28;20088;-93
2022/04/25 06:19:48;;;;;;;;;;;;;;;;;;;;;
2022/04/25 06:22:42;;;;;;;31.35;28.33;;;;;;;19.05;100.00;100181.75;5055786;28;20105;-93
2022/04/25 06:25:21;;;;;;;29.67;27.40;;;;;;;19.21;100.00;100180.63;5057181;28;20057;-94
2022/04/25 06:28:08;;;;;;;;;;;;;;;;;;;;;
2022/04/25 06:30:42;;;;;;;29.63;27.05;;;;;;;19.65;100.00;100182.56;5063185;28;20041;-93
2022/04/25 06:33:15;;;;;;;32.20;29.38;;;;;;;19.76;100.00;100177.09;5063027;28;20037;-94
2022/04/25 06:35:43;;;;;;;31.17;27.77;;;;;;;19.80;100.00;100184.38;5065520;28;20056;-93
2022/04/25 06:38:12;;;;;;;32.13;29.10;;;;;;;20.00;100.00;100172.63;5061176;28;20087;-93
2022/04/25 06:40:42;;;;;;;31.38;28.27;;;;;;;20.26;100.00;100177.81;5052269;28;20055;-93
2022/04/25 06:43:32;;;;;;;30.90;27.85;;;;;;;20.30;100.00;100165.34;5061682;28;20053;-93
2022/04/25 06:46:10;;;;;;;31.45;27.90;;;;;;;20.31;100.00;100172.38;5061754;28;20056;-95
2022/04/25 06:48:37;;;;;;;33.45;28.13;;;;;;;20.83;100.00;100170.78;5054536;28;20052;-93
2022/04/25 06:51:28;;;;;;;32.17;29.05;;;;;;;20.90;100.00;100167.75;5064604;28;20055;-93
2022/04/25 06:53:59;;;;;;;32.22;27.35;;;;;;;21.12;100.00;100167.19;5049775;28;20115;-94
2022/04/25 06:56:31;;;;;;;33.50;29.45;;;;;;;21.09;100.00;100165.91;5062652;28;20140;-93
2022/04/25 06:59:19;;;;;;;;;;;;;;;21.30;100.00;100163.72;5056090;28;20049;-94
2022/04/25 07:02:04;;;;;;;31.55;28.42;;;;;;;21.35;100.00;100157.47;5058378;28;19925;-93
2022/04/25 07:04:37;;;;;;;49.28;36.75;;;;;;;21.68;100.00;100156.47;5059261;28;20045;-93
2022/04/25 07:07:09;;;;;;;32.25;28.85;;;;;;;21.89;96.32;100153.44;5062564;28;20048;-93
2022/04/25 07:09:40;;;;;;;31.27;28.10;;;;;;;22.08;92.82;100156.09;5060205;28;20510;-94
2022/04/25 07:12:08;;;;;;;33.83;30.33;;;;;;;22.06;97.51;100158.28;5059834;28;20514;-93
2022/04/25 07:14:45;;;;;;;;;;;;;;;;;;;;;
2022/04/25 07:17:26;;;;;;;31.13;27.38;;;;;;;22.10;88.65;100156.63;5049473;28;20105;-92
2022/04/25 07:19:55;;;;;;;31.73;27.80;;;;;;;22.40;85.17;100156.13;5059466;28;20048;-93
2022/04/25 07:30:46;;;;;;;32.78;29.67;;;;;;;21.65;80.78;100167.06;5057572;28;20110;-92
2022/04/25 07:33:20;;;;;;;32.67;29.67;;;;;;;22.30;69.76;100175.25;5060406;28;20052;-93
2022/04/25 07:35:47;;;;;;;32.38;29.23;;;;;;;22.62;74.53;100165.47;5059043;28;20049;-93
2022/04/25 07:38:15;;;;;;;30.77;28.13;;;;;;;20.99;79.52;100172.22;5059577;28;20045;-93
2022/04/25 07:40:44;;;;;;;31.58;28.85;;;;;;;22.20;75.96;100167.28;5063927;28;20032;-91
2022/04/25 07:43:15;;;;;;;32.78;29.77;;;;;;;22.73;70.37;100168.78;5059225;28;20110;-92
2022/04/25 07:45:44;;;;;;;33.42;29.88;;;;;;;23.05;68.54;100170.59;5047671;28;20076;-93
2022/04/25 07:48:14;;;;;;;33.10;29.55;;;;;;;23.22;70.37;100165.38;5057956;28;20071;-92
2022/04/25 07:50:44;;;;;;;33.83;30.80;;;;;;;22.45;70.87;100171.47;5059233;28;20048;-93
2022/04/25 07:53:19;;;;;;;33.67;30.17;;;;;;;19.52;91.51;100180.47;5059836;28;20108;-93
2022/04/25 07:55:47;;;;;;;31.55;29.10;;;;;;;19.16;98.37;100171.78;5057894;28;20051;-93
2022/04/25 07:58:14;;;;;;;34.92;31.25;;;;;;;19.99;99.24;100159.44;5058098;28;20063;-93
2022/04/25 08:00:49;;;;;;;34.42;31.38;;;;;;;20.40;88.93;100170.66;5059096;28;20049;-91
2022/04/25 08:03:27;;;;;;;32.55;29.83;;;;;;;22.45;78.28;100173.34;5061046;28;20063;-93
2022/04/25 08:05:56;;;;;;;32.63;29.80;;;;;;;21.39;79.18;100166.59;5062219;28;20057;-93
2022/04/25 08:08:24;;;;;;;32.65;29.70;;;;;;;19.38;99.55;100150.66;5060184;28;20472;-94
2022/04/25 08:10:51;;;;;;;32.75;30.00;;;;;;;19.44;99.46;100154.13;5059549;28;20052;-93
2022/04/25 08:19:00;;;;;;;32.38;29.55;;;;;;;21.27;82.33;100157.03;4993895;28;20052;-93
2022/04/25 08:21:31;;;;;;;33.13;30.15;;;;;;;21.86;84.96;100146.72;5059511;28;20041;-93
2022/04/25 08:24:02;;;;;;;31.55;29.00;;;;;;;21.33;91.85;100152.38;5058984;28;20045;-93
2022/04/25 08:26:31;;;;;;;34.08;30.02;;;;;;;23.20;77.41;100142.41;5060373;28;20140;-92
2022/04/25 08:28:59;;;;;;;32.33;29.50;;;;;;;22.20;78.07;100150.25;5062891;28;20052;-93
2022/04/25 08:31:27;;;;;;;31.02;28.38;;;;;;;20.29;94.60;100147.56;5060332;28;20052;-93
2022/04/25 08:34:02;;;;;;;30.95;28.50;;;;;;;19.47;99.10;100144.69;5061140;28;20052;-94
2022/04/25 08:36:46;;;;;;;31.52;28.60;;;;;;;22.59;81.68;100142.50;5056604;28;20053;-93
2022/04/25 08:39:15;;;;;;;31.48;29.10;;;;;;;23.39;75.89;100151.19;5057462;28;20060;-93
2022/04/25 08:41:47;;;;;;;34.25;31.13;;;;;;;20.29;95.46;100147.56;5055682;28;20064;-93
2022/04/25 08:44:20;;;;;;;;;;;;;;;23.47;79.42;100150.44;5056358;28;20049;-93
2022/04/25 08:46:55;;;;;;;32.50;29.58;;;;;;;22.77;75.40;100148.13;5058105;28;19971;-92
2022/04/25 08:49:32;;;;;;;31.55;28.20;;;;;;;22.54;81.66;100156.16;5054145;28;20072;-93
2022/04/25 08:52:03;;;;;;;30.63;28.23;;;;;;;23.48;73.23;100165.63;5059237;28;20052;-93
2022/04/25 08:54:39;;;;;;;31.20;28.30;;;;;;;23.63;73.92;100163.66;5058769;28;20052;-93
2022/04/25 08:57:06;;;;;;;30.27;27.30;;;;;;;20.68;87.65;100166.38;5059541;28;20052;-93
2022/04/25 08:59:35;;;;;;;30.88;27.80;;;;;;;23.05;81.38;100159.78;5057533;28;20048;-94
2022/04/25 09:02:05;;;;;;;30.55;27.70;;;;;;;22.99;83.68;100160.97;5057743;28;20067;-93
2022/04/25 09:04:34;;;;;;;30.65;27.90;;;;;;;22.97;78.20;100155.88;5057852;28;20104;-92
2022/04/25 09:09:50;;;;;;;32.70;29.42;;;;;;;23.86;80.01;100150.94;5057760;28;20057;-92
2022/04/25 09:12:20;;;;;;;30.50;27.92;;;;;;;23.21;78.05;100152.94;5057398;28;20127;-93
2022/04/25 09:14:47;;;;;;;32.25;28.30;;;;;;;23.40;81.61;100157.41;5054229;28;20415;-91
2022/04/25 09:17:16;;;;;;;36.28;28.67;;;;;;;23.81;83.53;100149.16;5054979;28;20068;-93
2022/04/25 09:19:43;;;;;;;33.50;30.13;;;;;;;23.91;77.91;100148.13;5045653;28;20053;-93
2022/04/25 09:22:41;;;;;;;33.90;30.55;;;;;;;23.68;83.28;100147.28;5058727;28;20458;-93
2022/04/25 09:25:15;;;;;;;32.67;29.60;;;;;;;24.80;81.78;100152.56;5058094;28;20052;-94
2022/04/25 09:27:48;;;;;;;34.85;31.50;;;;;;;23.72;86.35;100146.41;5058621;28;20060;-93
2022/04/25 09:30:18;;;;;;;34.78;31.35;;;;;;;25.27;78.64;100147.44;5057603;28;20072;-93
2022/04/25 09:32:47;;;;;;;32.10;29.08;;;;;;;22.78;80.72;100152.44;5056915;28;20376;-93
2022/04/25 09:35:42;;;;;;;32.42;29.30;;;;;;;22.40;100.00;100147.19;5057305;28;20052;-93
2022/04/25 09:38:29;;;;;;;31.02;28.58;;;;;;;23.40;91.39;100141.94;5057349;28;20056;-93
2022/04/25 09:41:02;;;;;;;32.92;29.80;;;;;;;22.00;100.00;100144.09;4921247;28;20056;-93
2022/04/25 09:43:38;;;;;;;31.45;28.63;;;;;;;21.35;100.00;100149.34;4905692;29;20655;-93
2022/04/25 09:46:10;;;;;;;31.58;28.95;;;;;;;21.68;100.00;100136.75;4941250;29;20142;-94
2022/04/25 12:33:53;;;;;;;31.27;28.85;;;;;;;24.40;70.95;100143.63;5717528;23;20035;-93
2022/04/25 12:36:25;;;;;;;31.02;28.83;;;;;;;24.44;71.10;100142.69;4937748;29;20090;-88
2022/04/25 12:39:14;;;;;;;55.47;50.67;;;;;;;22.48;76.82;100145.69;4966218;29;20051;-93
2022/04/25 12:41:56;;;;;;;53.55;49.30;;;;;;;23.14;76.67;100138.19;4965208;29;20039;-93
2022/04/25 12:45:00;;;;;;;59.63;53.03;;;;;;;22.44;85.79;100142.00;4973013;28;20071;-92
2022/04/25 12:48:08;;;;;;;57.33;52.53;;;;;;;23.72;70.46;100130.13;4968855;28;20054;-94
2022/04/25 12:54:42;;;;;;;;;;;;;;;;;;;;;
2022/04/25 12:57:17;;;;;;;58.42;53.90;;;;;;;25.33;67.58;100138.03;5069979;28;20048;-93
2022/04/25 13:00:19;;;;;;;;;;;;;;;;;;;;;
2022/04/25 13:06:25;;;;;;;61.50;56.72;;;;;;;25.00;68.30;100137.63;5103716;28;20093;-92
2022/04/25 13:11:55;;;;;;;58.35;53.85;;;;;;;23.07;70.60;100149.44;5099718;28;20183;-93
2022/04/25 13:14:44;;;;;;;31.33;28.75;;;;;;;22.63;72.08;100142.69;5101378;28;20059;-92
2022/04/25 13:17:28;;;;;;;31.83;29.33;;;;;;;21.59;79.10;100146.63;5093174;28;20048;-90
2022/04/25 13:20:28;;;;;;;31.08;28.83;;;;;;;23.81;72.50;100141.03;5089178;28;20320;-93
2022/04/25 13:25:54;;;;;;;31.60;28.88;;;;;;;23.74;60.92;100144.16;5084967;28;20052;-92
2022/04/25 13:28:31;;;;;;;31.30;29.08;;;;;;;23.36;67.69;100153.69;5089070;28;20084;-92
2022/04/25 13:30:59;;;;;;;54.40;50.13;;;;;;;22.72;68.97;100145.50;5095689;28;20064;-91
2022/04/25 13:33:44;;;;;;;;;;;;;;;;;;;;;
2022/04/25 13:36:18;;;;;;;60.75;56.50;;;;;;;22.63;70.48;100154.34;5090254;28;20497;-93
2022/04/25 13:38:48;;;;;;;57.38;53.17;;;;;;;20.95;82.46;100148.78;5082274;28;20078;-91
2022/04/25 13:41:19;;;;;;;62.45;57.83;;;;;;;22.36;73.36;100151.59;5088344;28;20140;-92
2022/04/25 13:43:56;;;;;;;58.65;54.53;;;;;;;23.31;70.43;100141.88;5098939;28;20047;-92
2022/04/25 13:46:32;;;;;;;58.15;53.97;;;;;;;22.39;77.55;100149.13;5087687;28;20132;-91
2022/04/25 13:49:02;;;;;;;60.78;56.58;;;;;;;21.78;82.71;100150.09;5111571;28;20105;-93
2022/04/25 13:51:39;;;;;;;62.83;58.05;;;;;;;22.22;79.91;100148.88;5077972;28;20506;-93
2022/04/25 13:54:09;;;;;;;55.42;51.10;;;;;;;23.43;74.78;100144.06;5081934;28;20130;-92
2022/04/25 13:59:37;;;;;;;;;;;;;;;;;;;;;
2022/04/25 14:04:54;;;;;;;62.78;57.08;;;;;;;23.68;65.59;100148.06;5063805;28;20065;-92
2022/04/25 14:07:23;;;;;;;60.22;55.08;;;;;;;22.91;73.60;100156.25;5072499;28;20528;-92
2022/04/25 14:10:17;;;;;;;59.13;54.05;;;;;;;23.22;70.31;100145.59;5076094;28;20052;-91
2022/04/25 14:13:02;;;;;;;58.38;53.10;;;;;;;22.40;72.02;100156.13;5069549;28;20128;-90
2022/04/25 14:15:33;;;;;;;60.72;55.15;;;;;;;23.44;69.51;100161.91;5072637;28;20048;-92
2022/04/25 14:18:03;;;;;;;59.03;53.75;;;;;;;22.13;75.29;100153.31;5073462;28;20045;-91
2022/04/25 14:20:33;;;;;;;60.50;55.10;;;;;;;22.03;85.28;100151.59;5066866;28;20056;-90
2022/04/25 14:23:11;;;;;;;60.20;55.10;;;;;;;23.14;70.89;100159.88;5078743;28;20045;-90
2022/04/25 14:28:52;;;;;;;;;;;;;;;;;;;;;
2022/04/25 14:31:27;;;;;;;58.70;53.60;;;;;;;21.44;84.99;100163.84;5073723;28;20044;-92
2022/04/25 14:34:04;;;;;;;57.60;52.40;;;;;;;21.55;85.20;100167.22;5063166;28;20040;-91
2022/04/25 14:36:48;;;;;;;57.33;52.25;;;;;;;22.47;79.49;100158.44;5067863;28;20052;-92
2022/04/25 14:39:40;;;;;;;59.35;53.90;;;;;;;22.62;79.62;100171.66;5082236;28;20077;-93
2022/04/25 14:42:07;;;;;;;58.38;52.85;;;;;;;22.39;78.48;100176.16;5068597;28;20071;-91
2022/04/25 14:44:53;;;;;;;57.03;51.83;;;;;;;20.75;87.99;100180.31;5066869;28;20045;-92
2022/04/25 14:47:22;;;;;;;57.88;52.55;;;;;;;22.61;79.38;100186.31;5070726;28;20044;-93
2022/04/25 14:55:33;;;;;;;57.97;52.78;;;;;;;21.92;75.54;100194.22;5077495;28;20044;-92
2022/04/25 14:58:07;;;;;;;59.05;53.30;;;;;;;22.23;74.64;100195.66;5074266;28;20064;-92
2022/04/25 15:00:36;;;;;;;58.33;53.15;;;;;;;20.08;96.87;100190.88;5079799;28;20041;-90
2022/04/25 15:03:07;;;;;;;57.55;51.83;;;;;;;21.68;82.68;100196.19;5085290;28;20448;-90
2022/04/25 15:05:39;;;;;;;53.90;49.33;;;;;;;21.41;79.96;100202.25;5085357;28;20109;-91
2022/04/25 15:08:15;;;;;;;57.42;51.85;;;;;;;21.71;83.93;100206.41;5079244;28;20048;-90
2022/04/25 15:10:46;;;;;;;58.85;53.60;;;;;;;23.16;68.93;100201.78;5064709;28;20052;-91
2022/04/25 15:13:17;;;;;;;57.40;52.08;;;;;;;20.77;88.98;100210.53;5072920;28;20044;-91
2022/04/25 15:15:47;;;;;;;56.57;51.27;;;;;;;21.15;82.20;100204.41;5062992;28;20132;-91
2022/04/25 15:18:16;;;;;;;56.20;50.83;;;;;;;21.00;84.64;100217.03;5067758;28;20051;-91
2022/04/25 15:20:44;;;;;;;58.47;52.13;;;;;;;21.63;81.19;100215.19;5073691;28;20087;-92
2022/04/25 15:23:25;;;;;;;;;;;;;;;;;;;;;
2022/04/25 15:25:54;;;;;;;57.00;51.22;;;;;;;21.72;79.15;100218.84;5082976;28;20131;-91
2022/04/25 15:28:38;;;;;;;57.60;52.03;;;;;;;22.26;69.64;100216.69;5078616;28;20064;-93
2022/04/25 15:31:37;;;;;;;56.35;50.75;;;;;;;20.76;88.88;100217.00;5078759;28;20611;-91